^^
Datos históricos de la estación: Murcia-Puente Tocinos
Diario Informe para Marzo 29, 2019 Unidades:  Ambas    Inglés   Métrico
Diario Semanal Mensual Anual Configurable
  Máximo: Mínimo: Media:
Temperatura: 62.2 °F /  16.8 °C 48.6 °F /  9.2 °C 55 °F /  12.8 °C
Punto de rocio: 46.6 °F /  8.1 °C 38.7 °F /  3.7 °C 43.7 °F /  6.5 °C
Humedad: 81% 50% 66%
Velocidad viento: 12.5mph /  20.1km/h - 5.2mph /  8.4km/h
Racha viento: 21.9mph /  35.2km/h - -
Viento- - SE
Presión: 30.3 in /  1026.3 hPa 30.2 in /  1022.5 hPa -
Precipitación: 0 in /  0.0 mm    
Historical Graphs
 
 
Tabla de datos para Marzo 29, 2019
Hora Temperatura Punto de rocio Presión Viento Velocidad viento Racha viento Humedad Intensidad lluvia(por hora) Nubes
00:00 52.2 °F /  11.2 °C 45.9 °F /  7.7 °C 30.3in /  1026.0hPa NW 2mph /  3.2km/h 4mph /  6.4km/h 79% 0in /  0.0mm CLR
00:05 52 °F /  11.1 °C 46 °F /  7.8 °C 30.3in /  1025.9hPa NW 1.8mph /  2.9km/h 2.3mph /  3.7km/h 80% 0in /  0.0mm CLR
00:10 52 °F /  11.1 °C 46 °F /  7.8 °C 30.3in /  1025.9hPa NW 1.4mph /  2.3km/h   80% 0in /  0.0mm CLR
00:15 52 °F /  11.1 °C 46 °F /  7.8 °C 30.3in /  1025.9hPa NW 1.4mph /  2.3km/h   80% 0in /  0.0mm CLR
00:20 52.2 °F /  11.2 °C 46.2 °F /  7.9 °C 30.3in /  1025.9hPa Calm   1.2mph /  1.9km/h 80% 0in /  0.0mm CLR
00:25 52.2 °F /  11.2 °C 46.2 °F /  7.9 °C 30.3in /  1025.9hPa Calm   2.3mph /  3.7km/h 80% 0in /  0.0mm CLR
00:30 52 °F /  11.1 °C 46 °F /  7.8 °C 30.3in /  1025.9hPa Calm   1.2mph /  1.9km/h 80% 0in /  0.0mm CLR
00:35 52 °F /  11.1 °C 46 °F /  7.8 °C 30.3in /  1025.9hPa Calm   2.3mph /  3.7km/h 80% 0in /  0.0mm CLR
00:40 51.8 °F /  11.0 °C 45.9 °F /  7.7 °C 30.3in /  1025.9hPa NW 1.4mph /  2.3km/h   80% 0in /  0.0mm CLR
00:45 51.8 °F /  11.0 °C 46.2 °F /  7.9 °C 30.3in /  1025.9hPa NW 1.4mph /  2.3km/h   81% 0in /  0.0mm CLR
00:50 51.8 °F /  11.0 °C 46.2 °F /  7.9 °C 30.3in /  1025.7hPa Calm     81% 0in /  0.0mm CLR
00:55 51.8 °F /  11.0 °C 46.2 °F /  7.9 °C 30.3in /  1025.7hPa Calm   2mph /  3.2km/h 81% 0in /  0.0mm CLR
01:00 51.8 °F /  11.0 °C 46.2 °F /  7.9 °C 30.3in /  1025.7hPa Calm   2mph /  3.2km/h 81% 0in /  0.0mm CLR
01:05 51.8 °F /  11.0 °C 46.2 °F /  7.9 °C 30.3in /  1025.6hPa Calm     81% 0in /  0.0mm CLR
01:10 51.8 °F /  11.0 °C 46.2 °F /  7.9 °C 30.3in /  1025.6hPa Calm     81% 0in /  0.0mm CLR
01:15 51.8 °F /  11.0 °C 46.2 °F /  7.9 °C 30.3in /  1025.6hPa Calm     81% 0in /  0.0mm CLR
01:20 51.8 °F /  11.0 °C 45.9 °F /  7.7 °C 30.3in /  1025.6hPa Calm   3.5mph /  5.6km/h 80% 0in /  0.0mm CLR
01:25 51.6 °F /  10.9 °C 45.7 °F /  7.6 °C 30.3in /  1025.6hPa Calm   4.6mph /  7.4km/h 80% 0in /  0.0mm CLR
01:30 51.6 °F /  10.9 °C 45.3 °F /  7.4 °C 30.3in /  1025.6hPa South 2.4mph /  3.9km/h 3.6mph /  5.8km/h 79% 0in /  0.0mm CLR
01:35 51.4 °F /  10.8 °C 45.1 °F /  7.3 °C 30.3in /  1025.5hPa SSE 2.4mph /  3.9km/h 2.9mph /  4.7km/h 79% 0in /  0.0mm CLR
01:40 51.4 °F /  10.8 °C 45.1 °F /  7.3 °C 30.3in /  1025.5hPa SSE 2mph /  3.2km/h   79% 0in /  0.0mm CLR
01:45 51.4 °F /  10.8 °C 45.5 °F /  7.5 °C 30.3in /  1025.5hPa SSE 2mph /  3.2km/h   80% 0in /  0.0mm CLR
01:50 51.4 °F /  10.8 °C 45.5 °F /  7.5 °C 30.3in /  1025.4hPa Calm     80% 0in /  0.0mm CLR
01:55 51.4 °F /  10.8 °C 45.1 °F /  7.3 °C 30.3in /  1025.4hPa Calm     79% 0in /  0.0mm CLR
02:00 51.4 °F /  10.8 °C 45.1 °F /  7.3 °C 30.3in /  1025.4hPa Calm   4mph /  6.4km/h 79% 0in /  0.0mm CLR
02:05 51.4 °F /  10.8 °C 45.1 °F /  7.3 °C 30.3in /  1025.4hPa Calm   4.6mph /  7.4km/h 79% 0in /  0.0mm CLR
02:10 51.4 °F /  10.8 °C 45.1 °F /  7.3 °C 30.3in /  1025.4hPa South 2mph /  3.2km/h 3.5mph /  5.6km/h 79% 0in /  0.0mm CLR
02:15 51.4 °F /  10.8 °C 44.8 °F /  7.1 °C 30.3in /  1025.4hPa SSW 2mph /  3.2km/h 5.8mph /  9.3km/h 78% 0in /  0.0mm CLR
02:20 51.3 °F /  10.7 °C 45 °F /  7.2 °C 30.3in /  1025.4hPa SSW 3.1mph /  5.0km/h 5.8mph /  9.3km/h 79% 0in /  0.0mm CLR
02:25 51.3 °F /  10.7 °C 45 °F /  7.2 °C 30.3in /  1025.4hPa SSW 3.1mph /  5.0km/h 5.8mph /  9.3km/h 79% 0in /  0.0mm CLR
02:30 51.3 °F /  10.7 °C 45 °F /  7.2 °C 30.3in /  1025.4hPa SSW 3.6mph /  5.8km/h 4.6mph /  7.4km/h 79% 0in /  0.0mm CLR
02:35 51.3 °F /  10.7 °C 45 °F /  7.2 °C 30.3in /  1025.2hPa SSW 3.6mph /  5.8km/h 5.8mph /  9.3km/h 79% 0in /  0.0mm CLR
02:40 51.3 °F /  10.7 °C 45 °F /  7.2 °C 30.3in /  1025.2hPa SSW 4mph /  6.4km/h 5.8mph /  9.3km/h 79% 0in /  0.0mm CLR
02:45 51.3 °F /  10.7 °C 45 °F /  7.2 °C 30.3in /  1025.2hPa SSW 4mph /  6.4km/h 5.8mph /  9.3km/h 79% 0in /  0.0mm CLR
02:50 51.3 °F /  10.7 °C 44.6 °F /  7.0 °C 30.3in /  1025.1hPa SSW 4.3mph /  6.9km/h 3.5mph /  5.6km/h 78% 0in /  0.0mm CLR
02:55 51.3 °F /  10.7 °C 44.6 °F /  7.0 °C 30.3in /  1025.1hPa SE 4.3mph /  6.9km/h 4.6mph /  7.4km/h 78% 0in /  0.0mm CLR
03:00 51.3 °F /  10.7 °C 44.2 °F /  6.8 °C 30.3in /  1025.1hPa South 2mph /  3.2km/h 8mph /  12.9km/h 77% 0in /  0.0mm CLR
03:05 50.9 °F /  10.5 °C 44.2 °F /  6.8 °C 30.3in /  1025.1hPa South 2mph /  3.2km/h 4.7mph /  7.6km/h 78% 0in /  0.0mm CLR
03:10 50.7 °F /  10.4 °C 44.1 °F /  6.7 °C 30.3in /  1025.1hPa SW 4.7mph /  7.6km/h 5.8mph /  9.3km/h 78% 0in /  0.0mm CLR
03:15 50.7 °F /  10.4 °C 44.1 °F /  6.7 °C 30.3in /  1025.1hPa SSW 4.7mph /  7.6km/h 8.1mph /  13.0km/h 78% 0in /  0.0mm CLR
03:20 50.5 °F /  10.3 °C 43.9 °F /  6.6 °C 30.3in /  1025.2hPa West 4.3mph /  6.9km/h 3.6mph /  5.8km/h 78% 0in /  0.0mm CLR
03:25 50.5 °F /  10.3 °C 43.9 °F /  6.6 °C 30.3in /  1025.2hPa SW 4.3mph /  6.9km/h 6.9mph /  11.1km/h 78% 0in /  0.0mm CLR
03:30 50.7 °F /  10.4 °C 44.1 °F /  6.7 °C 30.3in /  1025.2hPa SW 3.6mph /  5.8km/h 8.1mph /  13.0km/h 78% 0in /  0.0mm CLR
03:35 50.7 °F /  10.4 °C 44.4 °F /  6.9 °C 30.3in /  1025.1hPa WSW 3.6mph /  5.8km/h 4.6mph /  7.4km/h 79% 0in /  0.0mm CLR
03:40 50.7 °F /  10.4 °C 44.1 °F /  6.7 °C 30.3in /  1025.1hPa SSW 4.3mph /  6.9km/h 5.8mph /  9.3km/h 78% 0in /  0.0mm CLR
03:45 50.7 °F /  10.4 °C 44.1 °F /  6.7 °C 30.3in /  1025.1hPa South 4.3mph /  6.9km/h 6.9mph /  11.1km/h 78% 0in /  0.0mm CLR
03:50 50.7 °F /  10.4 °C 44.1 °F /  6.7 °C 30.3in /  1025.1hPa SSW 3.6mph /  5.8km/h 4.6mph /  7.4km/h 78% 0in /  0.0mm CLR
03:55 50.7 °F /  10.4 °C 44.1 °F /  6.7 °C 30.3in /  1025.1hPa SW 3.6mph /  5.8km/h 4.6mph /  7.4km/h 78% 0in /  0.0mm CLR
04:00 50.9 °F /  10.5 °C 44.2 °F /  6.8 °C 30.3in /  1025.1hPa SW 2mph /  3.2km/h 5mph /  8.0km/h 78% 0in /  0.0mm CLR
04:05 50.9 °F /  10.5 °C 44.2 °F /  6.8 °C 30.3in /  1025.0hPa SW 2.4mph /  3.9km/h 3.5mph /  5.6km/h 78% 0in /  0.0mm CLR
04:10 50.9 °F /  10.5 °C 44.2 °F /  6.8 °C 30.3in /  1025.0hPa SW 2.4mph /  3.9km/h 2.3mph /  3.7km/h 78% 0in /  0.0mm CLR
04:15 51.1 °F /  10.6 °C 44.4 °F /  6.9 °C 30.3in /  1025.0hPa SSE 2.4mph /  3.9km/h 3.1mph /  5.0km/h 78% 0in /  0.0mm CLR
04:20 50.9 °F /  10.5 °C 43.9 °F /  6.6 °C 30.3in /  1025.0hPa SSW 2.4mph /  3.9km/h 6.9mph /  11.1km/h 77% 0in /  0.0mm CLR
04:25 50.7 °F /  10.4 °C 44.1 °F /  6.7 °C 30.3in /  1025.0hPa SSW 2.4mph /  3.9km/h 5.8mph /  9.3km/h 78% 0in /  0.0mm CLR
04:30 50.7 °F /  10.4 °C 43.9 °F /  6.6 °C 30.3in /  1025.0hPa SSW 3.1mph /  5.0km/h 5.8mph /  9.3km/h 77% 0in /  0.0mm CLR
04:35 50.7 °F /  10.4 °C 44.1 °F /  6.7 °C 30.3in /  1025.0hPa SSW 3.1mph /  5.0km/h 5.8mph /  9.3km/h 78% 0in /  0.0mm CLR
04:40 50.5 °F /  10.3 °C 43.5 °F /  6.4 °C 30.3in /  1025.0hPa SSW 4.3mph /  6.9km/h 5.8mph /  9.3km/h 77% 0in /  0.0mm CLR
04:45 50.5 °F /  10.3 °C 43.5 °F /  6.4 °C 30.3in /  1025.0hPa SW 4.3mph /  6.9km/h 4.6mph /  7.4km/h 77% 0in /  0.0mm CLR
04:50 50.5 °F /  10.3 °C 43.5 °F /  6.4 °C 30.3in /  1024.9hPa WSW 3.6mph /  5.8km/h 3.5mph /  5.6km/h 77% 0in /  0.0mm CLR
04:55 50.5 °F /  10.3 °C 43.5 °F /  6.4 °C 30.3in /  1024.9hPa WSW 3.6mph /  5.8km/h 2.3mph /  3.7km/h 77% 0in /  0.0mm CLR
05:00 50.5 °F /  10.3 °C 43.5 °F /  6.4 °C 30.3in /  1024.9hPa WSW 2mph /  3.2km/h 3mph /  4.8km/h 77% 0in /  0.0mm CLR
05:05 50.5 °F /  10.3 °C 43.3 °F /  6.3 °C 30.3in /  1024.8hPa WSW 1.8mph /  2.9km/h 4.6mph /  7.4km/h 76% 0in /  0.0mm CLR
05:10 50.4 °F /  10.2 °C 43.2 °F /  6.2 °C 30.3in /  1024.8hPa WSW 2.4mph /  3.9km/h 3.5mph /  5.6km/h 76% 0in /  0.0mm CLR
05:15 50.4 °F /  10.2 °C 43.2 °F /  6.2 °C 30.3in /  1024.8hPa South 2.4mph /  3.9km/h 4.6mph /  7.4km/h 76% 0in /  0.0mm CLR
05:20 50.2 °F /  10.1 °C 43 °F /  6.1 °C 30.3in /  1025.0hPa SSW 3.1mph /  5.0km/h 5.8mph /  9.3km/h 76% 0in /  0.0mm CLR
05:25 50 °F /  10.0 °C 42.4 °F /  5.8 °C 30.3in /  1025.0hPa SSW 3.1mph /  5.0km/h 6.4mph /  10.3km/h 75% 0in /  0.0mm CLR
05:30 49.8 °F /  9.9 °C 42.3 °F /  5.7 °C 30.3in /  1025.0hPa South 4.3mph /  6.9km/h 6.9mph /  11.1km/h 75% 0in /  0.0mm CLR
05:35 49.6 °F /  9.8 °C 42.1 °F /  5.6 °C 30.3in /  1025.1hPa South 4.3mph /  6.9km/h 6.9mph /  11.1km/h 75% 0in /  0.0mm CLR
05:40 49.5 °F /  9.7 °C 41.5 °F /  5.3 °C 30.3in /  1025.1hPa South 4.7mph /  7.6km/h 4.6mph /  7.4km/h 74% 0in /  0.0mm CLR
05:45 49.3 °F /  9.6 °C 41.4 °F /  5.2 °C 30.3in /  1025.1hPa SSW 4.7mph /  7.6km/h 6.9mph /  11.1km/h 74% 0in /  0.0mm CLR
05:50 49.3 °F /  9.6 °C 41.4 °F /  5.2 °C 30.3in /  1025.0hPa South 4mph /  6.4km/h 4.6mph /  7.4km/h 74% 0in /  0.0mm CLR
05:55 49.1 °F /  9.5 °C 41.2 °F /  5.1 °C 30.3in /  1025.0hPa South 4mph /  6.4km/h 4.6mph /  7.4km/h 74% 0in /  0.0mm CLR
06:00 49.1 °F /  9.5 °C 41.5 °F /  5.3 °C 30.3in /  1025.0hPa South 3mph /  4.8km/h 5mph /  8.0km/h 75% 0in /  0.0mm CLR
06:05 48.9 °F /  9.4 °C 41.4 °F /  5.2 °C 30.3in /  1025.0hPa South 3.1mph /  5.0km/h 9.2mph /  14.8km/h 75% 0in /  0.0mm CLR
06:10 48.9 °F /  9.4 °C 41.4 °F /  5.2 °C 30.3in /  1025.0hPa SSW 4.7mph /  7.6km/h 4.7mph /  7.6km/h 75% 0in /  0.0mm CLR
06:15 48.9 °F /  9.4 °C 41.4 °F /  5.2 °C 30.3in /  1025.0hPa South 4.7mph /  7.6km/h 6.9mph /  11.1km/h 75% 0in /  0.0mm CLR
06:20 48.7 °F /  9.3 °C 41.2 °F /  5.1 °C 30.3in /  1025.1hPa SSW 4.7mph /  7.6km/h 6.9mph /  11.1km/h 75% 0in /  0.0mm CLR
06:25 48.7 °F /  9.3 °C 41.2 °F /  5.1 °C 30.3in /  1025.1hPa SSE 4.7mph /  7.6km/h 8.1mph /  13.0km/h 75% 0in /  0.0mm CLR
06:30 48.6 °F /  9.2 °C 41 °F /  5.0 °C 30.3in /  1025.1hPa SSW 5.2mph /  8.4km/h 5.8mph /  9.3km/h 75% 0in /  0.0mm CLR
06:35 48.6 °F /  9.2 °C 41 °F /  5.0 °C 30.3in /  1025.3hPa SSW 5.2mph /  8.4km/h 5.8mph /  9.3km/h 75% 0in /  0.0mm CLR
06:40 48.6 °F /  9.2 °C 41 °F /  5.0 °C 30.3in /  1025.3hPa South 4.3mph /  6.9km/h 5.8mph /  9.3km/h 75% 0in /  0.0mm CLR
06:45 48.6 °F /  9.2 °C 40.6 °F /  4.8 °C 30.3in /  1025.3hPa SSW 4.3mph /  6.9km/h 6.9mph /  11.1km/h 74% 0in /  0.0mm CLR
06:50 48.6 °F /  9.2 °C 40.3 °F /  4.6 °C 30.3in /  1025.3hPa SW 4.7mph /  7.6km/h 6.9mph /  11.1km/h 73% 0in /  0.0mm CLR
06:55 48.7 °F /  9.3 °C 40.5 °F /  4.7 °C 30.3in /  1025.3hPa SSW 4.7mph /  7.6km/h 5.8mph /  9.3km/h 73% 0in /  0.0mm CLR
07:00 48.7 °F /  9.3 °C 40.5 °F /  4.7 °C 30.3in /  1025.3hPa SSW 5mph /  8.0km/h 7mph /  11.3km/h 73% 0in /  0.0mm CLR
07:05 48.9 °F /  9.4 °C 40.6 °F /  4.8 °C 30.3in /  1025.4hPa SW 4.3mph /  6.9km/h 8.1mph /  13.0km/h 73% 0in /  0.0mm CLR
07:10 48.9 °F /  9.4 °C 40.3 °F /  4.6 °C 30.3in /  1025.4hPa SW 5.2mph /  8.4km/h 8.1mph /  13.0km/h 72% 0in /  0.0mm CLR
07:15 48.9 °F /  9.4 °C 40.3 °F /  4.6 °C 30.3in /  1025.4hPa SW 5.2mph /  8.4km/h 5.8mph /  9.3km/h 72% 0in /  0.0mm CLR
07:20 48.9 °F /  9.4 °C 40.3 °F /  4.6 °C 30.3in /  1025.6hPa SW 4mph /  6.4km/h 8.1mph /  13.0km/h 72% 0in /  0.0mm CLR
07:25 48.9 °F /  9.4 °C 40.3 °F /  4.6 °C 30.3in /  1025.6hPa South 4mph /  6.4km/h 4.6mph /  7.4km/h 72% 0in /  0.0mm CLR
07:30 49.1 °F /  9.5 °C 40.5 °F /  4.7 °C 30.3in /  1025.6hPa SW 4mph /  6.4km/h 5.8mph /  9.3km/h 72% 0in /  0.0mm CLR
07:35 49.3 °F /  9.6 °C 40.6 °F /  4.8 °C 30.3in /  1025.7hPa SW 4mph /  6.4km/h 5.2mph /  8.4km/h 72% 0in /  0.0mm CLR
07:40 49.3 °F /  9.6 °C 40.3 °F /  4.6 °C 30.3in /  1025.7hPa SW 2.9mph /  4.7km/h 4.6mph /  7.4km/h 71% 0in /  0.0mm CLR
07:45 49.5 °F /  9.7 °C 40.5 °F /  4.7 °C 30.3in /  1025.7hPa WSW 2.9mph /  4.7km/h 4.6mph /  7.4km/h 71% 0in /  0.0mm CLR
07:50 49.5 °F /  9.7 °C 40.1 °F /  4.5 °C 30.3in /  1025.8hPa SSW 3.1mph /  5.0km/h 5.8mph /  9.3km/h 70% 0in /  0.0mm CLR
07:55 49.6 °F /  9.8 °C 39.6 °F /  4.2 °C 30.3in /  1025.8hPa SW 3.1mph /  5.0km/h 5.2mph /  8.4km/h 68% 0in /  0.0mm CLR
08:00 49.6 °F /  9.8 °C 39 °F /  3.9 °C 30.3in /  1025.8hPa WSW 3mph /  4.8km/h 8mph /  12.9km/h 67% 0in /  0.0mm CLR
08:05 49.6 °F /  9.8 °C 38.7 °F /  3.7 °C 30.3in /  1025.9hPa WSW 3.6mph /  5.8km/h 5.8mph /  9.3km/h 66% 0in /  0.0mm CLR
08:10 49.8 °F /  9.9 °C 38.8 °F /  3.8 °C 30.3in /  1025.9hPa WSW 4.7mph /  7.6km/h 6.9mph /  11.1km/h 66% 0in /  0.0mm CLR
08:15 49.8 °F /  9.9 °C 38.8 °F /  3.8 °C 30.3in /  1025.9hPa SW 4.7mph /  7.6km/h 8.1mph /  13.0km/h 66% 0in /  0.0mm CLR
08:20 50.2 °F /  10.1 °C 39.4 °F /  4.1 °C 30.3in /  1025.8hPa SW 5.4mph /  8.7km/h 6.9mph /  11.1km/h 66% 0in /  0.0mm CLR
08:25 50.4 °F /  10.2 °C 40.3 °F /  4.6 °C 30.3in /  1025.8hPa WSW 5.4mph /  8.7km/h 5.8mph /  9.3km/h 68% 0in /  0.0mm CLR
08:30 50.4 °F /  10.2 °C 40.6 °F /  4.8 °C 30.3in /  1025.8hPa SW 4mph /  6.4km/h 5.8mph /  9.3km/h 69% 0in /  0.0mm CLR
08:35 50.5 °F /  10.3 °C 40.6 °F /  4.8 °C 30.3in /  1025.8hPa SW 4mph /  6.4km/h 4.6mph /  7.4km/h 69% 0in /  0.0mm CLR
08:40 50.9 °F /  10.5 °C 40.6 °F /  4.8 °C 30.3in /  1025.8hPa SW 3.1mph /  5.0km/h 4.7mph /  7.6km/h 68% 0in /  0.0mm CLR
08:45 51.1 °F /  10.6 °C 40.8 °F /  4.9 °C 30.3in /  1025.8hPa SSW 3.1mph /  5.0km/h 6.9mph /  11.1km/h 68% 0in /  0.0mm CLR
08:50 51.1 °F /  10.6 °C 40.8 °F /  4.9 °C 30.3in /  1025.9hPa SSW 4.3mph /  6.9km/h 6.9mph /  11.1km/h 68% 0in /  0.0mm CLR
08:55 51.1 °F /  10.6 °C 40.8 °F /  4.9 °C 30.3in /  1025.9hPa WSW 4.3mph /  6.9km/h 6.9mph /  11.1km/h 68% 0in /  0.0mm CLR
09:00 51.3 °F /  10.7 °C 40.6 °F /  4.8 °C 30.3in /  1025.9hPa SSW 5mph /  8.0km/h 7mph /  11.3km/h 67% 0in /  0.0mm CLR
09:05 51.3 °F /  10.7 °C 40.6 °F /  4.8 °C 30.3in /  1025.9hPa SSW 4mph /  6.4km/h 5.8mph /  9.3km/h 67% 0in /  0.0mm CLR
09:10 51.3 °F /  10.7 °C 40.6 °F /  4.8 °C 30.3in /  1025.9hPa SW 4.3mph /  6.9km/h 5.8mph /  9.3km/h 67% 0in /  0.0mm CLR
09:15 51.4 °F /  10.8 °C 40.8 °F /  4.9 °C 30.3in /  1025.9hPa SSW 4.3mph /  6.9km/h 6.9mph /  11.1km/h 67% 0in /  0.0mm CLR
09:20 51.6 °F /  10.9 °C 41 °F /  5.0 °C 30.3in /  1025.9hPa South 4.3mph /  6.9km/h 8.1mph /  13.0km/h 67% 0in /  0.0mm CLR
09:25 52 °F /  11.1 °C 41 °F /  5.0 °C 30.3in /  1025.9hPa South 4.3mph /  6.9km/h 5.8mph /  9.3km/h 66% 0in /  0.0mm CLR
09:30 52.2 °F /  11.2 °C 40.6 °F /  4.8 °C 30.3in /  1025.9hPa South 5.4mph /  8.7km/h 8.1mph /  13.0km/h 65% 0in /  0.0mm CLR
09:35 52 °F /  11.1 °C 41 °F /  5.0 °C 30.3in /  1026.1hPa SSW 5.4mph /  8.7km/h 10.4mph /  16.7km/h 66% 0in /  0.0mm CLR
09:40 52 °F /  11.1 °C 41 °F /  5.0 °C 30.3in /  1026.1hPa SSE 6.4mph /  10.3km/h 6.9mph /  11.1km/h 66% 0in /  0.0mm CLR
09:45 52.2 °F /  11.2 °C 41.2 °F /  5.1 °C 30.3in /  1026.1hPa SSW 6.4mph /  10.3km/h 8.7mph /  14.0km/h 66% 0in /  0.0mm CLR
09:50 52.3 °F /  11.3 °C 40.8 °F /  4.9 °C 30.3in /  1026.2hPa SW 5.9mph /  9.5km/h 9.2mph /  14.8km/h 65% 0in /  0.0mm CLR
09:55 52.3 °F /  11.3 °C 40.5 °F /  4.7 °C 30.3in /  1026.2hPa SSW 5.9mph /  9.5km/h 8.1mph /  13.0km/h 64% 0in /  0.0mm CLR
10:00 52.5 °F /  11.4 °C 40.6 °F /  4.8 °C 30.3in /  1026.2hPa SSW 7mph /  11.3km/h 10mph /  16.1km/h 64% 0in /  0.0mm CLR
10:05 52.7 °F /  11.5 °C 40.5 °F /  4.7 °C 30.3in /  1026.3hPa WSW 6.4mph /  10.3km/h 6.9mph /  11.1km/h 63% 0in /  0.0mm CLR
10:10 53.2 °F /  11.8 °C 40.5 °F /  4.7 °C 30.3in /  1026.3hPa SSW 5.2mph /  8.4km/h 6.9mph /  11.1km/h 62% 0in /  0.0mm CLR
10:15 53.8 °F /  12.1 °C 40.6 °F /  4.8 °C 30.3in /  1026.3hPa WSW 5.2mph /  8.4km/h 5.8mph /  9.3km/h 61% 0in /  0.0mm CLR
10:20 54.1 °F /  12.3 °C 41 °F /  5.0 °C 30.3in /  1026.1hPa WSW 4.3mph /  6.9km/h 4.6mph /  7.4km/h 61% 0in /  0.0mm CLR
10:25 55 °F /  12.8 °C 41 °F /  5.0 °C 30.3in /  1026.1hPa WNW 4.3mph /  6.9km/h 4.6mph /  7.4km/h 59% 0in /  0.0mm CLR
10:30 55.6 °F /  13.1 °C 41 °F /  5.0 °C 30.3in /  1026.1hPa SW 2.9mph /  4.7km/h 4.6mph /  7.4km/h 58% 0in /  0.0mm CLR
10:35 56.1 °F /  13.4 °C 42.1 °F /  5.6 °C 30.3in /  1026.1hPa SSW 2.9mph /  4.7km/h 3.5mph /  5.6km/h 59% 0in /  0.0mm CLR
10:40 56.8 °F /  13.8 °C 42.6 °F /  5.9 °C 30.3in /  1026.1hPa NW 2mph /  3.2km/h 4.6mph /  7.4km/h 59% 0in /  0.0mm CLR
10:45 57.6 °F /  14.2 °C 44.2 °F /  6.8 °C 30.3in /  1026.1hPa ENE 2mph /  3.2km/h 2.9mph /  4.7km/h 61% 0in /  0.0mm CLR
10:50 57.9 °F /  14.4 °C 43.7 °F /  6.5 °C 30.3in /  1026.0hPa West 2.4mph /  3.9km/h 5.8mph /  9.3km/h 59% 0in /  0.0mm CLR
10:55 57.7 °F /  14.3 °C 44.4 °F /  6.9 °C 30.3in /  1026.0hPa NE 2.4mph /  3.9km/h 10.4mph /  16.7km/h 61% 0in /  0.0mm CLR
11:00 57.7 °F /  14.3 °C 44.8 °F /  7.1 °C 30.3in /  1026.0hPa NNE 5mph /  8.0km/h 12mph /  19.3km/h 62% 0in /  0.0mm CLR
11:05 57.4 °F /  14.1 °C 44.4 °F /  6.9 °C 30.3in /  1025.8hPa North 5.2mph /  8.4km/h 5.8mph /  9.3km/h 62% 0in /  0.0mm CLR
11:10 57.4 °F /  14.1 °C 45 °F /  7.2 °C 30.3in /  1025.8hPa NNE 5.9mph /  9.5km/h 10.4mph /  16.7km/h 63% 0in /  0.0mm CLR
11:15 57.9 °F /  14.4 °C 45.3 °F /  7.4 °C 30.3in /  1025.8hPa North 5.9mph /  9.5km/h 8.7mph /  14.0km/h 63% 0in /  0.0mm CLR
11:20 57.9 °F /  14.4 °C 45.3 °F /  7.4 °C 30.3in /  1025.7hPa NE 5.2mph /  8.4km/h 10.4mph /  16.7km/h 63% 0in /  0.0mm CLR
11:25 58.1 °F /  14.5 °C 45.7 °F /  7.6 °C 30.3in /  1025.7hPa ENE 5.2mph /  8.4km/h 10.4mph /  16.7km/h 63% 0in /  0.0mm CLR
11:30 58.5 °F /  14.7 °C 45.9 °F /  7.7 °C 30.3in /  1025.7hPa East 5.4mph /  8.7km/h 9.2mph /  14.8km/h 63% 0in /  0.0mm CLR
11:35 58.5 °F /  14.7 °C 45.9 °F /  7.7 °C 30.3in /  1025.4hPa East 5.4mph /  8.7km/h 10.4mph /  16.7km/h 63% 0in /  0.0mm CLR
11:40 58.3 °F /  14.6 °C 45.7 °F /  7.6 °C 30.3in /  1025.4hPa NNE 6.4mph /  10.3km/h 10.4mph /  16.7km/h 63% 0in /  0.0mm CLR
11:45 58.5 °F /  14.7 °C 46.2 °F /  7.9 °C 30.3in /  1025.4hPa NNE 6.4mph /  10.3km/h 10mph /  16.1km/h 64% 0in /  0.0mm CLR
11:50 58.5 °F /  14.7 °C 45.9 °F /  7.7 °C 30.3in /  1025.3hPa NE 6.4mph /  10.3km/h 14mph /  22.5km/h 63% 0in /  0.0mm CLR
11:55 58.6 °F /  14.8 °C 46 °F /  7.8 °C 30.3in /  1025.3hPa NE 6.4mph /  10.3km/h 14.7mph /  23.7km/h 63% 0in /  0.0mm CLR
12:00 58.5 °F /  14.7 °C 45.9 °F /  7.7 °C 30.3in /  1025.3hPa NE 8mph /  12.9km/h 15mph /  24.1km/h 63% 0in /  0.0mm CLR
12:05 58.5 °F /  14.7 °C 45.9 °F /  7.7 °C 30.3in /  1025.2hPa NE 7.6mph /  12.2km/h 9.2mph /  14.8km/h 63% 0in /  0.0mm CLR
12:10 58.6 °F /  14.8 °C 46 °F /  7.8 °C 30.3in /  1025.2hPa ENE 5.9mph /  9.5km/h 10.4mph /  16.7km/h 63% 0in /  0.0mm CLR
12:15 59.2 °F /  15.1 °C 46.2 °F /  7.9 °C 30.3in /  1025.2hPa NE 5.9mph /  9.5km/h 18.1mph /  29.1km/h 62% 0in /  0.0mm CLR
12:20 59.2 °F /  15.1 °C 45.7 °F /  7.6 °C 30.3in /  1024.9hPa NNE 10mph /  16.1km/h 15mph /  24.1km/h 61% 0in /  0.0mm CLR
12:25 59.5 °F /  15.3 °C 45.7 °F /  7.6 °C 30.3in /  1024.9hPa NE 10mph /  16.1km/h 18.4mph /  29.6km/h 60% 0in /  0.0mm CLR
12:30 59.7 °F /  15.4 °C 45.9 °F /  7.7 °C 30.3in /  1024.9hPa NE 10.7mph /  17.2km/h 17.8mph /  28.6km/h 60% 0in /  0.0mm CLR
12:35 60.1 °F /  15.6 °C 45.7 °F /  7.6 °C 30.3in /  1024.8hPa NE 10.7mph /  17.2km/h 18.4mph /  29.6km/h 59% 0in /  0.0mm CLR
12:40 60.1 °F /  15.6 °C 46.6 °F /  8.1 °C 30.3in /  1024.8hPa NE 11.8mph /  19.0km/h 16.3mph /  26.2km/h 61% 0in /  0.0mm CLR
12:45 60.1 °F /  15.6 °C 46 °F /  7.8 °C 30.3in /  1024.8hPa NE 11.8mph /  19.0km/h 18.1mph /  29.1km/h 60% 0in /  0.0mm CLR
12:50 59.9 °F /  15.5 °C 46 °F /  7.8 °C 30.3in /  1024.6hPa North 11.8mph /  19.0km/h 17.3mph /  27.8km/h 60% 0in /  0.0mm CLR
12:55 59.9 °F /  15.5 °C 46 °F /  7.8 °C 30.3in /  1024.6hPa NE 11.8mph /  19.0km/h 13mph /  20.9km/h 60% 0in /  0.0mm CLR
13:00 60.1 °F /  15.6 °C 45.3 °F /  7.4 °C 30.3in /  1024.6hPa NE 10mph /  16.1km/h 19mph /  30.6km/h 58% 0in /  0.0mm CLR
13:05 61 °F /  16.1 °C 44.8 °F /  7.1 °C 30.3in /  1024.4hPa East 10.2mph /  16.4km/h 17.3mph /  27.8km/h 55% 0in /  0.0mm CLR
13:10 61.3 °F /  16.3 °C 44.4 °F /  6.9 °C 30.3in /  1024.4hPa ENE 9.7mph /  15.6km/h 18.4mph /  29.6km/h 54% 0in /  0.0mm CLR
13:15 61.5 °F /  16.4 °C 44.8 °F /  7.1 °C 30.3in /  1024.4hPa NE 9.7mph /  15.6km/h 18.4mph /  29.6km/h 54% 0in /  0.0mm CLR
13:20 61.9 °F /  16.6 °C 44.1 °F /  6.7 °C 30.3in /  1024.3hPa NE 9.7mph /  15.6km/h 18.4mph /  29.6km/h 52% 0in /  0.0mm CLR
13:25 61.2 °F /  16.2 °C 45 °F /  7.2 °C 30.3in /  1024.3hPa NE 9.7mph /  15.6km/h 20.7mph /  33.3km/h 55% 0in /  0.0mm CLR
13:30 61 °F /  16.1 °C 44.8 °F /  7.1 °C 30.3in /  1024.3hPa NE 12.5mph /  20.1km/h 18.4mph /  29.6km/h 55% 0in /  0.0mm CLR
13:35 61.3 °F /  16.3 °C 44.4 °F /  6.9 °C 30.2in /  1024.1hPa NNE 12.5mph /  20.1km/h 15mph /  24.1km/h 54% 0in /  0.0mm CLR
13:40 61.7 °F /  16.5 °C 43.9 °F /  6.6 °C 30.2in /  1024.1hPa WNW 11.2mph /  18.0km/h 12.7mph /  20.4km/h 52% 0in /  0.0mm CLR
13:45 61.9 °F /  16.6 °C 43.5 °F /  6.4 °C 30.2in /  1024.1hPa NE 11.2mph /  18.0km/h 21.9mph /  35.2km/h 51% 0in /  0.0mm CLR
13:50 61.9 °F /  16.6 °C 45 °F /  7.2 °C 30.2in /  1024.0hPa East 11.8mph /  19.0km/h 20.7mph /  33.3km/h 54% 0in /  0.0mm CLR
13:55 61.9 °F /  16.6 °C 44.1 °F /  6.7 °C 30.2in /  1024.0hPa ENE 11.8mph /  19.0km/h 19.6mph /  31.5km/h 52% 0in /  0.0mm CLR
14:00 61.5 °F /  16.4 °C 43.2 °F /  6.2 °C 30.2in /  1024.0hPa NE 12mph /  19.3km/h 19mph /  30.6km/h 51% 0in /  0.0mm CLR
14:05 61.7 °F /  16.5 °C 43.9 °F /  6.6 °C 30.2in /  1023.8hPa ENE 11.8mph /  19.0km/h 18.4mph /  29.6km/h 52% 0in /  0.0mm CLR
14:10 61.5 °F /  16.4 °C 44.2 °F /  6.8 °C 30.2in /  1023.8hPa NE 10.2mph /  16.4km/h 11.5mph /  18.5km/h 53% 0in /  0.0mm CLR
14:15 61.7 °F /  16.5 °C 43.9 °F /  6.6 °C 30.2in /  1023.8hPa NE 10.2mph /  16.4km/h 16.1mph /  25.9km/h 52% 0in /  0.0mm CLR
14:20 61.5 °F /  16.4 °C 44.2 °F /  6.8 °C 30.2in /  1023.6hPa NE 9.2mph /  14.8km/h 11.5mph /  18.5km/h 53% 0in /  0.0mm CLR
14:25 62.1 °F /  16.7 °C 44.8 °F /  7.1 °C 30.2in /  1023.6hPa ENE 9.2mph /  14.8km/h 20.7mph /  33.3km/h 53% 0in /  0.0mm CLR
14:30 61.5 °F /  16.4 °C 43.7 °F /  6.5 °C 30.2in /  1023.6hPa NE 11.2mph /  18.0km/h 15mph /  24.1km/h 52% 0in /  0.0mm CLR
14:35 61.9 °F /  16.6 °C 44.6 °F /  7.0 °C 30.2in /  1023.4hPa East 11.2mph /  18.0km/h 13.5mph /  21.7km/h 53% 0in /  0.0mm CLR
14:40 62.1 °F /  16.7 °C 44.2 °F /  6.8 °C 30.2in /  1023.4hPa NNE 9.7mph /  15.6km/h 19.6mph /  31.5km/h 52% 0in /  0.0mm CLR
14:45 62.1 °F /  16.7 °C 43.7 °F /  6.5 °C 30.2in /  1023.4hPa NE 9.7mph /  15.6km/h 15mph /  24.1km/h 51% 0in /  0.0mm CLR
14:50 62.1 °F /  16.7 °C 44.8 °F /  7.1 °C 30.2in /  1023.2hPa ENE 10.7mph /  17.2km/h 17.3mph /  27.8km/h 53% 0in /  0.0mm CLR
14:55 62.2 °F /  16.8 °C 45 °F /  7.2 °C 30.2in /  1023.2hPa NE 10.7mph /  17.2km/h 18.4mph /  29.6km/h 53% 0in /  0.0mm CLR
15:00 62.1 °F /  16.7 °C 45.1 °F /  7.3 °C 30.2in /  1023.2hPa NE 12mph /  19.3km/h 19mph /  30.6km/h 54% 0in /  0.0mm CLR
15:05 61.5 °F /  16.4 °C 44.8 °F /  7.1 °C 30.2in /  1023.1hPa North 11.2mph /  18.0km/h 13.8mph /  22.2km/h 54% 0in /  0.0mm CLR
15:10 62.1 °F /  16.7 °C 44.8 °F /  7.1 °C 30.2in /  1023.1hPa NE 10.7mph /  17.2km/h 15mph /  24.1km/h 53% 0in /  0.0mm CLR
15:15 62.1 °F /  16.7 °C 44.8 °F /  7.1 °C 30.2in /  1023.1hPa NE 10.7mph /  17.2km/h 16.1mph /  25.9km/h 53% 0in /  0.0mm CLR
15:20 61.9 °F /  16.6 °C 44.6 °F /  7.0 °C 30.2in /  1023.0hPa ENE 10.2mph /  16.4km/h 16.1mph /  25.9km/h 53% 0in /  0.0mm CLR
15:25 62.1 °F /  16.7 °C 44.2 °F /  6.8 °C 30.2in /  1023.0hPa NW 10.2mph /  16.4km/h 20.7mph /  33.3km/h 52% 0in /  0.0mm CLR
15:30 62.1 °F /  16.7 °C 43.7 °F /  6.5 °C 30.2in /  1023.0hPa ENE 9.2mph /  14.8km/h 17.3mph /  27.8km/h 51% 0in /  0.0mm CLR
15:35 62.1 °F /  16.7 °C 44.8 °F /  7.1 °C 30.2in /  1022.8hPa NE 9.2mph /  14.8km/h 18.4mph /  29.6km/h 53% 0in /  0.0mm CLR
15:40 62.1 °F /  16.7 °C 44.2 °F /  6.8 °C 30.2in /  1022.8hPa ESE 10.7mph /  17.2km/h 12.7mph /  20.4km/h 52% 0in /  0.0mm CLR
15:45 61.9 °F /  16.6 °C 44.6 °F /  7.0 °C 30.2in /  1022.8hPa ENE 10.7mph /  17.2km/h 17.3mph /  27.8km/h 53% 0in /  0.0mm CLR
15:50 61.7 °F /  16.5 °C 43.9 °F /  6.6 °C 30.2in /  1022.7hPa NNE 10mph /  16.1km/h 18.4mph /  29.6km/h 52% 0in /  0.0mm CLR
15:55 61.9 °F /  16.6 °C 45 °F /  7.2 °C 30.2in /  1022.7hPa SSE 10mph /  16.1km/h 17.3mph /  27.8km/h 54% 0in /  0.0mm CLR
16:00 61.3 °F /  16.3 °C 43.5 °F /  6.4 °C 30.2in /  1022.7hPa NE 10mph /  16.1km/h 21mph /  33.8km/h 52% 0in /  0.0mm CLR
16:05 61.5 °F /  16.4 °C 44.8 °F /  7.1 °C 30.2in /  1022.6hPa NE 10.2mph /  16.4km/h 20.7mph /  33.3km/h 54% 0in /  0.0mm CLR
16:10 61.2 °F /  16.2 °C 43.3 °F /  6.3 °C 30.2in /  1022.6hPa ENE 10.2mph /  16.4km/h 17.3mph /  27.8km/h 52% 0in /  0.0mm CLR
16:15 61.3 °F /  16.3 °C 45 °F /  7.2 °C 30.2in /  1022.6hPa NE 10.2mph /  16.4km/h 17.3mph /  27.8km/h 55% 0in /  0.0mm CLR
16:20 61.3 °F /  16.3 °C 44.4 °F /  6.9 °C 30.2in /  1022.7hPa NE 9.7mph /  15.6km/h 18.4mph /  29.6km/h 54% 0in /  0.0mm CLR
16:25 61.2 °F /  16.2 °C 44.4 °F /  6.9 °C 30.2in /  1022.7hPa NE 9.7mph /  15.6km/h 17.3mph /  27.8km/h 54% 0in /  0.0mm CLR
16:30 61 °F /  16.1 °C 44.2 °F /  6.8 °C 30.2in /  1022.7hPa East 10.2mph /  16.4km/h 13.8mph /  22.2km/h 54% 0in /  0.0mm CLR
16:35 61 °F /  16.1 °C 44.8 °F /  7.1 °C 30.2in /  1022.7hPa NE 10.2mph /  16.4km/h 15.6mph /  25.1km/h 55% 0in /  0.0mm CLR
16:40 60.6 °F /  15.9 °C 43.9 °F /  6.6 °C 30.2in /  1022.7hPa ENE 10mph /  16.1km/h 16.1mph /  25.9km/h 54% 0in /  0.0mm CLR
16:45 61 °F /  16.1 °C 44.8 °F /  7.1 °C 30.2in /  1022.7hPa East 10mph /  16.1km/h 9.7mph /  15.6km/h 55% 0in /  0.0mm CLR
16:50 61.3 °F /  16.3 °C 44.4 °F /  6.9 °C 30.2in /  1022.6hPa ENE 8.5mph /  13.7km/h 15mph /  24.1km/h 54% 0in /  0.0mm CLR
16:55 61 °F /  16.1 °C 44.2 °F /  6.8 °C 30.2in /  1022.6hPa NE 8.5mph /  13.7km/h 13.8mph /  22.2km/h 54% 0in /  0.0mm CLR
17:00 60.6 °F /  15.9 °C 43.9 °F /  6.6 °C 30.2in /  1022.6hPa NE 10mph /  16.1km/h 21mph /  33.8km/h 54% 0in /  0.0mm CLR
17:05 60.4 °F /  15.8 °C 44.2 °F /  6.8 °C 30.2in /  1022.6hPa ENE 10.2mph /  16.4km/h 13.8mph /  22.2km/h 55% 0in /  0.0mm CLR
17:10 60.4 °F /  15.8 °C 44.2 °F /  6.8 °C 30.2in /  1022.6hPa East 9.7mph /  15.6km/h 16.1mph /  25.9km/h 55% 0in /  0.0mm CLR
17:15 60.6 °F /  15.9 °C 43.9 °F /  6.6 °C 30.2in /  1022.6hPa NE 9.7mph /  15.6km/h 18.4mph /  29.6km/h 54% 0in /  0.0mm CLR
17:20 60.4 °F /  15.8 °C 43.7 °F /  6.5 °C 30.2in /  1022.6hPa ENE 10mph /  16.1km/h 15mph /  24.1km/h 54% 0in /  0.0mm CLR
17:25 60.3 °F /  15.7 °C 43.5 °F /  6.4 °C 30.2in /  1022.6hPa ENE 10mph /  16.1km/h 13.8mph /  22.2km/h 54% 0in /  0.0mm CLR
17:30 60.4 °F /  15.8 °C 43.7 °F /  6.5 °C 30.2in /  1022.6hPa North 10mph /  16.1km/h 12.7mph /  20.4km/h 54% 0in /  0.0mm CLR
17:35 60.4 °F /  15.8 °C 43.2 °F /  6.2 °C 30.2in /  1022.6hPa NE 10mph /  16.1km/h 18.4mph /  29.6km/h 53% 0in /  0.0mm CLR
17:40 60.4 °F /  15.8 °C 43.7 °F /  6.5 °C 30.2in /  1022.6hPa ESE 8.1mph /  13.0km/h 12.7mph /  20.4km/h 54% 0in /  0.0mm CLR
17:45 60.4 °F /  15.8 °C 43.2 °F /  6.2 °C 30.2in /  1022.6hPa ESE 8.1mph /  13.0km/h 15.6mph /  25.1km/h 53% 0in /  0.0mm CLR
17:50 60.3 °F /  15.7 °C 42.1 °F /  5.6 °C 30.2in /  1022.6hPa NE 8.1mph /  13.0km/h 15mph /  24.1km/h 51% 0in /  0.0mm CLR
17:55 60.1 °F /  15.6 °C 41.4 °F /  5.2 °C 30.2in /  1022.6hPa ENE 8.1mph /  13.0km/h 18.4mph /  29.6km/h 50% 0in /  0.0mm CLR
18:00 59.9 °F /  15.5 °C 41.7 °F /  5.4 °C 30.2in /  1022.6hPa NE 10mph /  16.1km/h 18mph /  29.0km/h 51% 0in /  0.0mm CLR
18:05 60.1 °F /  15.6 °C 41.9 °F /  5.5 °C 30.2in /  1022.5hPa ENE 10.7mph /  17.2km/h 15mph /  24.1km/h 51% 0in /  0.0mm CLR
18:10 59.9 °F /  15.5 °C 41.7 °F /  5.4 °C 30.2in /  1022.5hPa NE 8.1mph /  13.0km/h 13.8mph /  22.2km/h 51% 0in /  0.0mm CLR
18:15 59.7 °F /  15.4 °C 41.5 °F /  5.3 °C 30.2in /  1022.5hPa NE 8.1mph /  13.0km/h 15mph /  24.1km/h 51% 0in /  0.0mm CLR
18:20 59.5 °F /  15.3 °C 41.4 °F /  5.2 °C 30.2in /  1022.5hPa NE 9.2mph /  14.8km/h 12.7mph /  20.4km/h 51% 0in /  0.0mm CLR
18:25 59.5 °F /  15.3 °C 41.9 °F /  5.5 °C 30.2in /  1022.5hPa NNE 9.2mph /  14.8km/h 9.2mph /  14.8km/h 52% 0in /  0.0mm CLR
18:30 59.5 °F /  15.3 °C 42.4 °F /  5.8 °C 30.2in /  1022.5hPa NE 7.4mph /  11.9km/h 11.5mph /  18.5km/h 53% 0in /  0.0mm CLR
18:35 59.5 °F /  15.3 °C 43.3 °F /  6.3 °C 30.2in /  1022.7hPa East 7.4mph /  11.9km/h 12.7mph /  20.4km/h 55% 0in /  0.0mm CLR
18:40 59.4 °F /  15.2 °C 43.2 °F /  6.2 °C 30.2in /  1022.7hPa NE 7.6mph /  12.2km/h 12.7mph /  20.4km/h 55% 0in /  0.0mm CLR
18:45 59 °F /  15.0 °C 43.9 °F /  6.6 °C 30.2in /  1022.7hPa ENE 7.6mph /  12.2km/h 18.4mph /  29.6km/h 57% 0in /  0.0mm CLR
18:50 58.8 °F /  14.9 °C 43.2 °F /  6.2 °C 30.2in /  1022.6hPa ENE 10mph /  16.1km/h 12.7mph /  20.4km/h 56% 0in /  0.0mm CLR
18:55 58.8 °F /  14.9 °C 43.5 °F /  6.4 °C 30.2in /  1022.6hPa NE 10mph /  16.1km/h 13.8mph /  22.2km/h 57% 0in /  0.0mm CLR
19:00 58.6 °F /  14.8 °C 43.9 °F /  6.6 °C 30.2in /  1022.6hPa NE 8mph /  12.9km/h 13mph /  20.9km/h 58% 0in /  0.0mm CLR
19:05 58.5 °F /  14.7 °C 43.7 °F /  6.5 °C 30.2in /  1022.6hPa NE 7.6mph /  12.2km/h 8.1mph /  13.0km/h 58% 0in /  0.0mm CLR
19:10 58.5 °F /  14.7 °C 43.7 °F /  6.5 °C 30.2in /  1022.6hPa NE 6.9mph /  11.1km/h 11.5mph /  18.5km/h 58% 0in /  0.0mm CLR
19:15 58.3 °F /  14.6 °C 43.5 °F /  6.4 °C 30.2in /  1022.6hPa ENE 6.9mph /  11.1km/h 8.1mph /  13.0km/h 58% 0in /  0.0mm CLR
19:20 57.9 °F /  14.4 °C 43.7 °F /  6.5 °C 30.2in /  1022.7hPa ENE 7.4mph /  11.9km/h 10.4mph /  16.7km/h 59% 0in /  0.0mm CLR
19:25 57.9 °F /  14.4 °C 43.7 °F /  6.5 °C 30.2in /  1022.7hPa ENE 7.4mph /  11.9km/h 9.2mph /  14.8km/h 59% 0in /  0.0mm CLR
19:30 57.7 °F /  14.3 °C 43.9 °F /  6.6 °C 30.2in /  1022.7hPa NE 6.4mph /  10.3km/h 9.2mph /  14.8km/h 60% 0in /  0.0mm CLR
19:35 57.6 °F /  14.2 °C 44.2 °F /  6.8 °C 30.2in /  1022.8hPa NNE 6.4mph /  10.3km/h 8.1mph /  13.0km/h 61% 0in /  0.0mm CLR
19:40 57.4 °F /  14.1 °C 44.4 °F /  6.9 °C 30.2in /  1022.8hPa ENE 5.9mph /  9.5km/h 12.7mph /  20.4km/h 62% 0in /  0.0mm CLR
19:45 57 °F /  13.9 °C 44.1 °F /  6.7 °C 30.2in /  1022.8hPa NE 5.9mph /  9.5km/h 8.1mph /  13.0km/h 62% 0in /  0.0mm CLR
19:50 57 °F /  13.9 °C 44.1 °F /  6.7 °C 30.2in /  1023.0hPa NE 5.9mph /  9.5km/h 6.9mph /  11.1km/h 62% 0in /  0.0mm CLR
19:55 56.8 °F /  13.8 °C 44.1 °F /  6.7 °C 30.2in /  1023.0hPa NE 5.9mph /  9.5km/h 6.9mph /  11.1km/h 62% 0in /  0.0mm CLR
20:00 56.7 °F /  13.7 °C 44.2 °F /  6.8 °C 30.2in /  1023.0hPa NE 5mph /  8.0km/h 7mph /  11.3km/h 63% 0in /  0.0mm CLR
20:05 56.5 °F /  13.6 °C 44.1 °F /  6.7 °C 30.2in /  1023.2hPa NNE 4.7mph /  7.6km/h 6.9mph /  11.1km/h 63% 0in /  0.0mm CLR
20:10 56.3 °F /  13.5 °C 43.9 °F /  6.6 °C 30.2in /  1023.2hPa NNE 4.7mph /  7.6km/h 8.1mph /  13.0km/h 63% 0in /  0.0mm CLR
20:15 56.1 °F /  13.4 °C 43.7 °F /  6.5 °C 30.2in /  1023.2hPa ENE 4.7mph /  7.6km/h 5.8mph /  9.3km/h 63% 0in /  0.0mm CLR
20:20 56.1 °F /  13.4 °C 43.7 °F /  6.5 °C 30.2in /  1023.4hPa NE 4.3mph /  6.9km/h 5.8mph /  9.3km/h 63% 0in /  0.0mm CLR
20:25 55.9 °F /  13.3 °C 43.9 °F /  6.6 °C 30.2in /  1023.4hPa NNE 4.3mph /  6.9km/h 5.8mph /  9.3km/h 64% 0in /  0.0mm CLR
20:30 55.9 °F /  13.3 °C 43.9 °F /  6.6 °C 30.2in /  1023.4hPa NNE 4mph /  6.4km/h 5.8mph /  9.3km/h 64% 0in /  0.0mm CLR
20:35 55.8 °F /  13.2 °C 44.2 °F /  6.8 °C 30.2in /  1023.5hPa NE 4mph /  6.4km/h 5.8mph /  9.3km/h 65% 0in /  0.0mm CLR
20:40 55.8 °F /  13.2 °C 44.2 °F /  6.8 °C 30.2in /  1023.5hPa NNE 4mph /  6.4km/h 4.6mph /  7.4km/h 65% 0in /  0.0mm CLR
20:45 55.8 °F /  13.2 °C 44.2 °F /  6.8 °C 30.2in /  1023.5hPa NNE 4mph /  6.4km/h 5.2mph /  8.4km/h 65% 0in /  0.0mm CLR
20:50 55.8 °F /  13.2 °C 44.2 °F /  6.8 °C 30.2in /  1023.6hPa NE 3.1mph /  5.0km/h 2.3mph /  3.7km/h 65% 0in /  0.0mm CLR
20:55 55.8 °F /  13.2 °C 44.6 °F /  7.0 °C 30.2in /  1023.6hPa NNE 3.1mph /  5.0km/h 4.6mph /  7.4km/h 66% 0in /  0.0mm CLR
21:00 55.6 °F /  13.1 °C 44.4 °F /  6.9 °C 30.2in /  1023.6hPa NNE 2mph /  3.2km/h 5mph /  8.0km/h 66% 0in /  0.0mm CLR
21:05 55.2 °F /  12.9 °C 44.4 °F /  6.9 °C 30.2in /  1023.8hPa NNE 2.9mph /  4.7km/h 3.1mph /  5.0km/h 67% 0in /  0.0mm CLR
21:10 55.2 °F /  12.9 °C 44.4 °F /  6.9 °C 30.2in /  1023.8hPa NE 2mph /  3.2km/h 2.3mph /  3.7km/h 67% 0in /  0.0mm CLR
21:15 55.2 °F /  12.9 °C 44.8 °F /  7.1 °C 30.2in /  1023.8hPa NE 2mph /  3.2km/h 4.6mph /  7.4km/h 68% 0in /  0.0mm CLR
21:20 55 °F /  12.8 °C 45.1 °F /  7.3 °C 30.2in /  1024.0hPa NNE 2mph /  3.2km/h 4.6mph /  7.4km/h 69% 0in /  0.0mm CLR
21:25 55 °F /  12.8 °C 45.1 °F /  7.3 °C 30.2in /  1024.0hPa NNE 2mph /  3.2km/h 2.3mph /  3.7km/h 69% 0in /  0.0mm CLR
21:30 55 °F /  12.8 °C 45.1 °F /  7.3 °C 30.2in /  1024.0hPa NNE 1.8mph /  2.9km/h   69% 0in /  0.0mm CLR
21:35 54.9 °F /  12.7 °C 45 °F /  7.2 °C 30.2in /  1024.1hPa NNE 1.8mph /  2.9km/h   69% 0in /  0.0mm CLR
21:40 55 °F /  12.8 °C 45.3 °F /  7.4 °C 30.2in /  1024.1hPa Calm   3.6mph /  5.8km/h 70% 0in /  0.0mm CLR
21:45 54.9 °F /  12.7 °C 45.3 °F /  7.4 °C 30.2in /  1024.1hPa Calm   3.5mph /  5.6km/h 70% 0in /  0.0mm CLR
21:50 54.9 °F /  12.7 °C 45 °F /  7.2 °C 30.2in /  1024.2hPa NNE 1.8mph /  2.9km/h 1.2mph /  1.9km/h 69% 0in /  0.0mm CLR
21:55 54.9 °F /  12.7 °C 45.3 °F /  7.4 °C 30.2in /  1024.2hPa NNE 1.8mph /  2.9km/h 2.3mph /  3.7km/h 70% 0in /  0.0mm CLR
22:00 54.7 °F /  12.6 °C 45.1 °F /  7.3 °C 30.2in /  1024.2hPa NNE 1mph /  1.6km/h 5mph /  8.0km/h 70% 0in /  0.0mm CLR
22:05 54.5 °F /  12.5 °C 45 °F /  7.2 °C 30.2in /  1024.2hPa NNE 1.4mph /  2.3km/h 2.3mph /  3.7km/h 70% 0in /  0.0mm CLR
22:10 54.3 °F /  12.4 °C 45.1 °F /  7.3 °C 30.2in /  1024.2hPa NNE 1.4mph /  2.3km/h 2.4mph /  3.9km/h 71% 0in /  0.0mm CLR
22:15 54.3 °F /  12.4 °C 45.5 °F /  7.5 °C 30.2in /  1024.2hPa NNE 1.4mph /  2.3km/h   72% 0in /  0.0mm CLR
22:20 54.3 °F /  12.4 °C 45.5 °F /  7.5 °C 30.3in /  1024.3hPa Calm     72% 0in /  0.0mm CLR
22:25 54.3 °F /  12.4 °C 45.5 °F /  7.5 °C 30.3in /  1024.3hPa Calm   2mph /  3.2km/h 72% 0in /  0.0mm CLR
22:30 54.3 °F /  12.4 °C 45.5 °F /  7.5 °C 30.3in /  1024.3hPa Calm   3.5mph /  5.6km/h 72% 0in /  0.0mm CLR
22:35 54.1 °F /  12.3 °C 45.3 °F /  7.4 °C 30.2in /  1024.2hPa Calm     72% 0in /  0.0mm CLR
22:40 54.1 °F /  12.3 °C 45.3 °F /  7.4 °C 30.2in /  1024.2hPa NNE 1.4mph /  2.3km/h 3.5mph /  5.6km/h 72% 0in /  0.0mm CLR
22:45 54 °F /  12.2 °C 45.5 °F /  7.5 °C 30.2in /  1024.2hPa NNE 1.4mph /  2.3km/h 2.3mph /  3.7km/h 73% 0in /  0.0mm CLR
22:50 54 °F /  12.2 °C 45.5 °F /  7.5 °C 30.2in /  1024.0hPa NNE 1.8mph /  2.9km/h 2.4mph /  3.9km/h 73% 0in /  0.0mm CLR
22:55 53.8 °F /  12.1 °C 45.7 °F /  7.6 °C 30.2in /  1024.0hPa NW 1.8mph /  2.9km/h 4.6mph /  7.4km/h 74% 0in /  0.0mm CLR
23:00 53.6 °F /  12.0 °C 45.5 °F /  7.5 °C 30.2in /  1024.0hPa NNW 2mph /  3.2km/h 6mph /  9.7km/h 74% 0in /  0.0mm CLR
23:05 53.4 °F /  11.9 °C 45.3 °F /  7.4 °C 30.2in /  1023.9hPa NW 2.9mph /  4.7km/h 2.3mph /  3.7km/h 74% 0in /  0.0mm CLR
23:10 53.2 °F /  11.8 °C 45.1 °F /  7.3 °C 30.2in /  1023.9hPa NW 2mph /  3.2km/h 2.3mph /  3.7km/h 74% 0in /  0.0mm CLR
23:15 53.1 °F /  11.7 °C 45.3 °F /  7.4 °C 30.2in /  1023.9hPa NW 2mph /  3.2km/h 2.3mph /  3.7km/h 75% 0in /  0.0mm CLR
23:20 53.1 °F /  11.7 °C 45.3 °F /  7.4 °C 30.2in /  1024.0hPa NW 2mph /  3.2km/h 1.2mph /  1.9km/h 75% 0in /  0.0mm CLR
23:25 53.1 °F /  11.7 °C 45.3 °F /  7.4 °C 30.2in /  1024.0hPa NW 2mph /  3.2km/h   75% 0in /  0.0mm CLR
23:30 52.9 °F /  11.6 °C 45.1 °F /  7.3 °C 30.2in /  1024.0hPa Calm     75% 0in /  0.0mm CLR
23:35 52.9 °F /  11.6 °C 45.1 °F /  7.3 °C 30.2in /  1024.0hPa Calm     75% 0in /  0.0mm CLR
23:40 52.9 °F /  11.6 °C 45.1 °F /  7.3 °C 30.2in /  1024.0hPa Calm     75% 0in /  0.0mm CLR
23:45 52.9 °F /  11.6 °C 45.5 °F /  7.5 °C 30.2in /  1024.0hPa Calm     76% 0in /  0.0mm CLR
23:50 52.9 °F /  11.6 °C 45.1 °F /  7.3 °C 30.2in /  1024.1hPa Calm   3.6mph /  5.8km/h 75% 0in /  0.0mm CLR
23:55 52.9 °F /  11.6 °C 44.8 °F /  7.1 °C 30.2in /  1024.1hPa Calm   3.5mph /  5.6km/h 74% 0in /  0.0mm CLR
Murcia-Puente Tocinos, España
Compliments of Weather Underground - 2.75 mb

La estación de MeteoMurcia.com, publica sus datos en los siguientes proyectos:

Weather Underground PWS IMURCIAP2 Meteoclimatic www.awekas.at

W3Counter
Web Analytics